createdAt,value
2019-01-14T00:00:35.777Z,99210.31
2019-01-14T00:03:04.460Z,99229.53
2019-01-14T00:05:32.939Z,99238.05
2019-01-14T00:08:01.456Z,99244.86
2019-01-14T00:10:29.910Z,99253.47
2019-01-14T00:12:58.438Z,99253.47
2019-01-14T00:15:28.465Z,99260.89
2019-01-14T00:17:57.004Z,99260.89
2019-01-14T00:20:25.583Z,99275.75
2019-01-14T00:22:54.040Z,99278.39
2019-01-14T00:25:22.510Z,99284.31
2019-01-14T00:27:50.952Z,99309.46
2019-01-14T00:30:19.411Z,99312.44
2019-01-14T00:32:47.835Z,99275.92
2019-01-14T00:35:16.365Z,99311.25
2019-01-14T00:37:44.797Z,99316.39
2019-01-14T00:40:15.178Z,99336.44
2019-01-14T00:42:44.780Z,99338.56
2019-01-14T00:45:13.385Z,99347.07
2019-01-14T00:47:41.973Z,99346.22
2019-01-14T00:50:13.084Z,99354.77
2019-01-14T00:52:41.662Z,99360.27
2019-01-14T00:55:11.523Z,99360.27
2019-01-14T00:57:40.256Z,99369.59
2019-01-14T01:00:12.144Z,99374.34
2019-01-14T01:02:40.557Z,99390.16
2019-01-14T01:05:10.835Z,99408.94
2019-01-14T01:07:39.295Z,99412.34
2019-01-14T01:10:11.002Z,99402.59
2019-01-14T01:12:41.210Z,99432.00
2019-01-14T01:15:12.562Z,99438.02
2019-01-14T01:17:41.203Z,99444.41
2019-01-14T01:20:12.706Z,99455.89
2019-01-14T01:22:41.308Z,99466.98
2019-01-14T01:25:11.481Z,99464.41
2019-01-14T01:27:40.096Z,99466.53
2019-01-14T01:30:14.519Z,99459.30
2019-01-14T01:32:44.514Z,99463.60
2019-01-14T01:35:14.092Z,99478.91
2019-01-14T01:37:42.608Z,99480.63
2019-01-14T01:40:16.961Z,99498.06
2019-01-14T01:42:45.524Z,99494.23
2019-01-14T01:45:15.215Z,99503.19
2019-01-14T01:47:43.784Z,99507.03
2019-01-14T01:50:14.824Z,99510.02
2019-01-14T01:52:43.371Z,99531.30
2019-01-14T01:55:12.093Z,99524.10
2019-01-14T01:57:42.310Z,99541.13
2019-01-14T02:00:19.031Z,99541.15
2019-01-14T02:02:47.565Z,99550.52
2019-01-14T02:05:16.541Z,99562.00
2019-01-14T02:07:45.208Z,99538.63
2019-01-14T02:10:19.596Z,99550.55
2019-01-14T02:12:48.184Z,99561.59
2019-01-14T02:15:19.522Z,99570.08
2019-01-14T02:17:48.147Z,99568.82
2019-01-14T02:20:18.271Z,99588.37
2019-01-14T02:22:46.878Z,99604.13
2019-01-14T02:25:17.138Z,99603.26
2019-01-14T02:27:45.629Z,99609.23
2019-01-14T02:30:16.619Z,99604.54
2019-01-14T02:32:45.079Z,99598.59
2019-01-14T02:35:14.705Z,99622.80
2019-01-14T02:37:43.296Z,99627.87
2019-01-14T02:40:17.057Z,99634.67
2019-01-14T02:42:45.615Z,99647.86
2019-01-14T02:45:15.297Z,99651.27
2019-01-14T02:47:43.825Z,99655.51
2019-01-14T02:50:14.101Z,99669.92
2019-01-14T02:52:44.071Z,99672.91
2019-01-14T02:55:12.856Z,99683.95
2019-01-14T02:57:41.347Z,99677.14
2019-01-14T03:00:12.931Z,99683.96
2019-01-14T03:02:41.437Z,99683.51
2019-01-14T03:05:10.021Z,99691.16
2019-01-14T03:07:38.608Z,99696.28
2019-01-14T03:10:09.983Z,99703.07
2019-01-14T03:12:38.439Z,99698.38
2019-01-14T03:15:10.018Z,99706.88
2019-01-14T03:17:38.469Z,99702.63
2019-01-14T03:20:10.361Z,99700.50
2019-01-14T03:22:38.963Z,99709.84
2019-01-14T03:25:09.039Z,99712.81
2019-01-14T03:27:37.519Z,99723.00
2019-01-14T03:30:19.329Z,99718.78
2019-01-14T03:32:50.131Z,99730.66
2019-01-14T03:35:18.780Z,99727.69
2019-01-14T03:37:50.505Z,99722.59
2019-01-14T03:40:22.586Z,99728.55
2019-01-14T03:42:51.694Z,99729.39
2019-01-14T03:45:20.192Z,99740.02
2019-01-14T03:47:48.735Z,99751.89
2019-01-14T03:50:20.550Z,99756.98
2019-01-14T03:52:49.168Z,99759.11
2019-01-14T03:55:17.671Z,99756.14
2019-01-14T03:57:46.322Z,99759.55
2019-01-14T04:00:16.946Z,99762.53
2019-01-14T04:02:45.732Z,99769.73
2019-01-14T04:05:19.457Z,99764.64
2019-01-14T04:07:48.728Z,99778.17
2019-01-14T04:10:18.976Z,99790.94
2019-01-14T04:12:47.484Z,99790.10
2019-01-14T04:15:17.884Z,99801.57
2019-01-14T04:17:48.032Z,99801.17
2019-01-14T04:20:18.794Z,99801.56
2019-01-14T04:22:47.570Z,99799.86
2019-01-14T04:25:16.067Z,99796.47
2019-01-14T04:27:44.771Z,99797.33
2019-01-14T04:30:19.360Z,99794.36
2019-01-14T04:32:48.000Z,99800.31
2019-01-14T04:35:17.609Z,99798.19
2019-01-14T04:37:46.089Z,99798.19
2019-01-14T04:40:15.822Z,99793.05
2019-01-14T04:42:44.382Z,99790.06
2019-01-14T04:45:16.451Z,99798.52
2019-01-14T04:47:44.943Z,99785.37
2019-01-14T04:50:16.502Z,99790.45
2019-01-14T04:52:44.969Z,99784.92
2019-01-14T04:55:13.664Z,99787.46
2019-01-14T04:57:42.189Z,99776.81
2019-01-14T05:00:16.483Z,99787.42
2019-01-14T05:02:44.931Z,99789.56
2019-01-14T05:05:14.069Z,99783.17
2019-01-14T05:07:42.626Z,99791.66
2019-01-14T05:10:16.744Z,99795.50
2019-01-14T05:12:45.185Z,99796.34
2019-01-14T05:15:14.013Z,99795.89
2019-01-14T05:17:42.717Z,99798.06
2019-01-14T05:20:16.871Z,99801.91
2019-01-14T05:22:45.409Z,99821.47
2019-01-14T05:25:14.249Z,99821.48
2019-01-14T05:27:42.637Z,99849.09
2019-01-14T05:30:16.582Z,99842.29
2019-01-14T05:32:45.062Z,99852.00
2019-01-14T05:35:14.153Z,99852.78
2019-01-14T05:37:42.659Z,99855.36
2019-01-14T05:40:19.937Z,99856.59
2019-01-14T05:42:48.492Z,99874.34
2019-01-14T05:45:17.339Z,99867.83
2019-01-14T05:47:45.761Z,99850.31
2019-01-14T05:50:16.419Z,99865.08
2019-01-14T05:52:45.233Z,99855.29
2019-01-14T05:55:15.247Z,99868.95
2019-01-14T05:57:43.863Z,99873.69
2019-01-14T06:00:28.694Z,99878.42
2019-01-14T06:02:57.158Z,99867.00
2019-01-14T06:05:25.715Z,99872.55
2019-01-14T06:07:54.241Z,99873.80
2019-01-14T06:10:22.707Z,99878.87
2019-01-14T06:12:51.155Z,99883.54
2019-01-14T06:15:21.206Z,99873.74
2019-01-14T06:17:49.918Z,99877.09
2019-01-14T06:20:20.986Z,99895.77
2019-01-14T06:22:49.582Z,99897.94
2019-01-14T06:25:18.434Z,99897.98
2019-01-14T06:27:46.912Z,99904.80
2019-01-14T06:30:18.288Z,99917.47
2019-01-14T06:32:46.681Z,99909.34
2019-01-14T06:35:15.497Z,99919.05
2019-01-14T06:37:52.096Z,99913.08
2019-01-14T06:40:20.656Z,99907.94
2019-01-14T06:42:49.153Z,99910.44
2019-01-14T06:45:17.844Z,99913.82
2019-01-14T06:47:47.182Z,99926.07
2019-01-14T06:50:19.857Z,99922.67
2019-01-14T06:52:48.478Z,99926.07
2019-01-14T06:55:18.174Z,99938.27
2019-01-14T06:57:46.811Z,99939.63
2019-01-14T07:00:21.226Z,99945.59
2019-01-14T07:02:51.928Z,99946.86
2019-01-14T07:05:20.606Z,99946.37
2019-01-14T07:07:49.217Z,99950.21
2019-01-14T07:10:24.159Z,99961.73
2019-01-14T07:12:52.750Z,99971.44
2019-01-14T07:15:21.540Z,99969.75
2019-01-14T07:17:54.528Z,99979.91
2019-01-14T07:20:23.418Z,99990.10
2019-01-14T07:22:51.919Z,99975.28
2019-01-14T07:25:21.890Z,99991.81
2019-01-14T07:27:50.371Z,99995.58
2019-01-14T07:30:21.369Z,100007.47
2019-01-14T07:32:49.842Z,100035.89
2019-01-14T07:35:18.364Z,100056.66
2019-01-14T07:37:48.832Z,100049.78
2019-01-14T07:40:19.099Z,100040.46
2019-01-14T07:42:50.212Z,100042.39
2019-01-14T07:45:19.720Z,100034.36
2019-01-14T07:47:48.335Z,100044.59
2019-01-14T07:50:18.500Z,100059.17
2019-01-14T07:52:48.600Z,100061.34
2019-01-14T07:55:17.042Z,100071.66
2019-01-14T07:57:46.573Z,100078.91
2019-01-14T08:00:18.210Z,100082.55
2019-01-14T08:02:46.671Z,100093.16
2019-01-14T08:05:16.371Z,100096.52
2019-01-14T08:07:45.464Z,100092.37
2019-01-14T08:10:14.180Z,100099.09
2019-01-14T08:12:42.747Z,100110.83
2019-01-14T08:15:17.247Z,100097.22
2019-01-14T08:17:45.772Z,100117.58
2019-01-14T08:20:14.500Z,100111.68
2019-01-14T08:22:43.281Z,100124.43
2019-01-14T08:25:13.868Z,100127.61
2019-01-14T08:27:44.034Z,100120.40
2019-01-14T08:30:18.271Z,100118.41
2019-01-14T08:32:46.846Z,100150.15
2019-01-14T08:35:15.737Z,100135.20
2019-01-14T08:37:44.250Z,100124.62
2019-01-14T08:40:15.146Z,100125.18
2019-01-14T08:42:43.642Z,100128.28
2019-01-14T08:45:13.948Z,100127.34
2019-01-14T08:47:43.297Z,100123.88
2019-01-14T08:50:15.480Z,100145.44
2019-01-14T08:52:43.863Z,100137.41
2019-01-14T08:55:12.445Z,100143.34
2019-01-14T08:57:42.490Z,100143.02
2019-01-14T09:00:16.471Z,100145.06
2019-01-14T09:02:45.038Z,100158.19
2019-01-14T09:05:13.587Z,100153.19
2019-01-14T09:07:42.124Z,100143.88
2019-01-14T09:10:19.858Z,100152.70
2019-01-14T09:12:48.436Z,100151.53
2019-01-14T09:15:18.611Z,100142.97
2019-01-14T09:17:47.669Z,100153.52
2019-01-14T09:20:19.005Z,100170.41
2019-01-14T09:22:47.701Z,100162.66
2019-01-14T09:25:16.268Z,100174.26
2019-01-14T09:27:44.719Z,100183.27
2019-01-14T09:30:18.862Z,100178.19
2019-01-14T09:32:47.596Z,100179.83
2019-01-14T09:35:16.070Z,100174.86
2019-01-14T09:37:44.606Z,100182.53
2019-01-14T09:40:15.775Z,100187.91
2019-01-14T09:42:45.007Z,100182.70
2019-01-14T09:45:14.327Z,100174.45
2019-01-14T09:47:43.033Z,100184.58
2019-01-14T09:50:13.612Z,100186.87
2019-01-14T09:52:42.088Z,100184.62
2019-01-14T09:55:16.253Z,100187.62
2019-01-14T09:57:45.256Z,100194.38
2019-01-14T10:00:15.963Z,100182.05
2019-01-14T10:02:44.878Z,100191.72
2019-01-14T10:05:15.966Z,100182.56
2019-01-14T10:07:44.754Z,100194.98
2019-01-14T10:10:15.166Z,100198.95
2019-01-14T10:12:43.730Z,100193.90
2019-01-14T10:15:17.903Z,100200.70
2019-01-14T10:17:48.153Z,100201.08
2019-01-14T10:20:16.654Z,100195.27
2019-01-14T10:22:45.176Z,100214.88
2019-01-14T10:25:13.784Z,100199.23
2019-01-14T10:27:42.368Z,100217.90
2019-01-14T10:30:16.407Z,100200.20
2019-01-14T10:32:44.901Z,100192.46
2019-01-14T10:35:13.523Z,100196.80
2019-01-14T10:37:49.447Z,100181.52
2019-01-14T10:40:17.950Z,100200.58
2019-01-14T10:42:46.593Z,100199.30
2019-01-14T10:45:17.964Z,100193.80
2019-01-14T10:47:46.504Z,100187.92
2019-01-14T10:50:16.952Z,100188.84
2019-01-14T10:52:45.610Z,100175.67
2019-01-14T10:55:15.719Z,100193.00
2019-01-14T10:57:44.745Z,100213.43
2019-01-14T11:00:22.026Z,100206.72
2019-01-14T11:02:50.597Z,100202.91
2019-01-14T11:05:25.540Z,100194.86
2019-01-14T11:07:54.077Z,100201.60
2019-01-14T11:10:22.721Z,100220.31
2019-01-14T11:12:51.636Z,100207.62
2019-01-14T11:15:22.334Z,100237.33
2019-01-14T11:17:50.991Z,100227.91
2019-01-14T11:20:22.169Z,100223.16
2019-01-14T11:22:52.372Z,100219.83
2019-01-14T11:25:21.261Z,100226.73
2019-01-14T11:27:49.871Z,100242.18
2019-01-14T11:30:21.369Z,100251.98
2019-01-14T11:32:49.821Z,100250.71
2019-01-14T11:35:18.266Z,100243.48
2019-01-14T11:37:46.782Z,100248.54
2019-01-14T11:40:20.924Z,100252.84
2019-01-14T11:43:11.875Z,100274.02
2019-01-14T11:45:40.306Z,100277.77
2019-01-14T11:48:08.891Z,100273.53
2019-01-14T11:50:37.550Z,100281.55
2019-01-14T11:53:06.004Z,100275.52
2019-01-14T11:55:37.024Z,100278.06
2019-01-14T11:58:05.668Z,100276.75
2019-01-14T12:00:36.769Z,100316.06
2019-01-14T12:03:05.353Z,100319.70
2019-01-14T12:05:33.815Z,100314.95
2019-01-14T12:08:02.418Z,100311.09
2019-01-14T12:10:30.976Z,100320.89
2019-01-14T12:12:59.406Z,100311.55
2019-01-14T12:15:28.585Z,100324.67
2019-01-14T12:17:57.109Z,100300.14
2019-01-14T12:20:25.883Z,100307.90
2019-01-14T12:22:54.441Z,100304.20
2019-01-14T12:25:23.051Z,100319.95
2019-01-14T12:27:51.581Z,100311.91
2019-01-14T12:30:23.234Z,100316.64
2019-01-14T12:32:51.743Z,100325.50
2019-01-14T12:35:20.352Z,100331.36
2019-01-14T12:37:48.832Z,100337.36
2019-01-14T12:40:17.718Z,100327.59
2019-01-14T12:42:46.587Z,100325.50
2019-01-14T12:45:17.638Z,100334.86
2019-01-14T12:47:46.317Z,100327.79
2019-01-14T12:50:17.368Z,100332.47
2019-01-14T12:52:45.933Z,100324.30
2019-01-14T12:55:16.601Z,100324.30
2019-01-14T12:57:45.244Z,100324.42
2019-01-14T13:00:18.918Z,100330.79
2019-01-14T13:02:47.323Z,100326.64
2019-01-14T13:05:17.744Z,100322.00
2019-01-14T13:07:46.348Z,100325.81
2019-01-14T13:10:15.879Z,100338.46
2019-01-14T13:12:44.569Z,100335.99
2019-01-14T13:15:21.688Z,100349.09
2019-01-14T13:17:51.846Z,100348.84
2019-01-14T13:20:21.911Z,100337.91
2019-01-14T13:22:50.958Z,100358.76
2019-01-14T13:25:19.834Z,100368.94
2019-01-14T13:27:48.513Z,100396.45
2019-01-14T13:30:22.717Z,100398.92
2019-01-14T13:32:51.277Z,100420.44
2019-01-14T13:35:19.842Z,100425.20
2019-01-14T13:37:48.993Z,100426.87
2019-01-14T13:40:17.717Z,100426.80
2019-01-14T13:42:46.465Z,100429.14
2019-01-14T13:45:22.531Z,100422.28
2019-01-14T13:47:51.235Z,100429.75
2019-01-14T13:50:22.255Z,100436.31
2019-01-14T13:52:50.767Z,100442.26
2019-01-14T13:55:20.991Z,100450.34
2019-01-14T13:57:49.660Z,100455.27
2019-01-14T14:00:23.151Z,100453.19
2019-01-14T14:02:51.783Z,100448.36
2019-01-14T14:05:20.412Z,100450.89
2019-01-14T14:07:48.893Z,100454.34
2019-01-14T14:10:20.621Z,100456.23
2019-01-14T14:12:49.207Z,100462.08
2019-01-14T14:15:19.211Z,100474.03
2019-01-14T14:17:48.162Z,100459.14
2019-01-14T14:20:17.986Z,100466.75
2019-01-14T14:22:46.577Z,100465.44
2019-01-14T14:25:15.166Z,100477.78
2019-01-14T14:27:43.790Z,100470.17
2019-01-14T14:30:24.446Z,100469.14
2019-01-14T14:32:53.083Z,100497.09
2019-01-14T14:35:21.812Z,100523.08
2019-01-14T14:37:50.389Z,100529.32
2019-01-14T14:40:19.033Z,100515.73
2019-01-14T14:42:47.948Z,100539.02
2019-01-14T14:45:16.831Z,100554.72
2019-01-14T14:47:45.404Z,100547.89
2019-01-14T14:50:19.228Z,100553.47
2019-01-14T14:52:48.011Z,100550.74
2019-01-14T14:55:16.685Z,100547.91
2019-01-14T14:57:45.497Z,100568.36
2019-01-14T15:00:28.937Z,100569.63
2019-01-14T15:02:57.390Z,100572.09
2019-01-14T15:05:27.541Z,100582.31
2019-01-14T15:07:56.089Z,100588.94
2019-01-14T15:10:24.407Z,100587.22
2019-01-14T15:12:52.852Z,100595.17
2019-01-14T15:15:23.000Z,100594.50
2019-01-14T15:17:52.072Z,100600.30
2019-01-14T15:20:22.580Z,100600.42
2019-01-14T15:22:53.140Z,100607.98
2019-01-14T15:25:23.998Z,100607.19
2019-01-14T15:27:52.886Z,100606.63
2019-01-14T15:30:26.789Z,100618.55
2019-01-14T15:32:58.441Z,100624.48
2019-01-14T15:35:31.378Z,100631.75
2019-01-14T15:38:00.497Z,100639.78
2019-01-14T15:40:30.204Z,100645.73
2019-01-14T15:43:04.429Z,100648.69
2019-01-14T15:45:36.805Z,100646.48
2019-01-14T15:48:05.974Z,100642.03
2019-01-14T15:50:37.166Z,100641.31
2019-01-14T15:53:06.069Z,100646.86
2019-01-14T15:55:35.417Z,100634.67
2019-01-14T15:58:07.593Z,100644.33
2019-01-14T16:00:49.033Z,100646.59
2019-01-14T16:03:17.033Z,100646.26
2019-01-14T16:05:53.186Z,100647.72
2019-01-14T16:08:22.349Z,100656.37
2019-01-14T16:10:52.767Z,100648.76
2019-01-14T16:13:24.703Z,100654.41
2019-01-14T16:15:56.732Z,100666.36
2019-01-14T16:18:28.567Z,100663.34
2019-01-14T16:21:00.492Z,100668.63
2019-01-14T16:23:31.159Z,100676.06
2019-01-14T16:25:59.723Z,100682.41
2019-01-14T16:28:28.231Z,100692.66
2019-01-14T16:30:56.725Z,100703.16
2019-01-14T16:33:25.176Z,100706.80
2019-01-14T16:35:53.610Z,100710.83
2019-01-14T16:38:22.059Z,100710.02
2019-01-14T16:40:50.616Z,100723.12
2019-01-14T16:43:20.254Z,100719.92
2019-01-14T16:45:48.713Z,100718.59
2019-01-14T16:48:17.248Z,100724.13
2019-01-14T16:50:45.695Z,100721.47
2019-01-14T16:53:14.180Z,100729.81
2019-01-14T16:55:44.249Z,100730.82
2019-01-14T16:58:12.753Z,100733.21
2019-01-14T17:00:41.499Z,100731.33
2019-01-14T17:03:10.198Z,100736.28
2019-01-14T17:05:39.038Z,100744.61
2019-01-14T17:08:07.547Z,100739.80
2019-01-14T17:10:36.071Z,100736.77
2019-01-14T17:13:04.758Z,100741.61
2019-01-14T17:15:33.260Z,100718.56
2019-01-14T17:18:01.739Z,100737.58
2019-01-14T17:20:30.258Z,100736.98
2019-01-14T17:22:58.716Z,100750.30
2019-01-14T17:25:27.205Z,100751.52
2019-01-14T17:27:55.647Z,100752.53
2019-01-14T17:30:24.250Z,100754.67
2019-01-14T17:32:53.614Z,100760.44
2019-01-14T17:35:22.275Z,100768.77
2019-01-14T17:37:50.831Z,100769.66
2019-01-14T17:40:21.109Z,100774.73
2019-01-14T17:42:49.747Z,100777.33
2019-01-14T17:45:18.415Z,100782.04
2019-01-14T17:47:47.421Z,100787.11
2019-01-14T17:50:19.904Z,100788.95
2019-01-14T17:52:48.778Z,100792.70
2019-01-14T17:55:17.359Z,100793.35
2019-01-14T17:57:47.375Z,100793.59
2019-01-14T18:00:23.969Z,100797.02
2019-01-14T18:02:52.703Z,100801.32
2019-01-14T18:05:21.412Z,100800.98
2019-01-14T18:07:50.217Z,100806.77
2019-01-14T18:10:20.207Z,100820.98
2019-01-14T18:12:48.909Z,100812.89
2019-01-14T18:15:17.577Z,100811.70
2019-01-14T18:17:46.139Z,100808.19
2019-01-14T18:20:16.627Z,100817.70
2019-01-14T18:22:45.135Z,100820.03
2019-01-14T18:25:15.200Z,100824.91
2019-01-14T18:27:43.764Z,100823.96
2019-01-14T18:30:17.717Z,100822.45
2019-01-14T18:32:46.367Z,100827.13
2019-01-14T18:35:16.994Z,100831.74
2019-01-14T18:37:45.719Z,100827.56
2019-01-14T18:40:16.308Z,100827.54
2019-01-14T18:42:45.165Z,100830.47
2019-01-14T18:45:16.220Z,100832.72
2019-01-14T18:47:44.761Z,100840.94
2019-01-14T18:50:15.922Z,100835.86
2019-01-14T18:52:44.380Z,100841.66
2019-01-14T18:55:12.941Z,100843.71
2019-01-14T18:57:41.704Z,100843.89
2019-01-14T19:00:17.380Z,100847.63
2019-01-14T19:02:46.203Z,100850.23
2019-01-14T19:05:14.756Z,100849.45
2019-01-14T19:07:44.818Z,100852.70
2019-01-14T19:10:14.105Z,100864.13
2019-01-14T19:12:42.702Z,100872.29
2019-01-14T19:15:14.200Z,100874.90
2019-01-14T19:17:42.700Z,100871.65
2019-01-14T19:20:23.393Z,100862.45
2019-01-14T19:22:51.893Z,100877.83
2019-01-14T19:25:20.661Z,100865.20
2019-01-14T19:27:49.180Z,100866.03
2019-01-14T19:30:19.892Z,100869.53
2019-01-14T19:32:48.515Z,100868.46
2019-01-14T19:35:17.218Z,100876.54
2019-01-14T19:37:47.028Z,100891.88
2019-01-14T19:40:17.774Z,100895.98
2019-01-14T19:42:46.344Z,100888.68
2019-01-14T19:45:18.122Z,100894.50
2019-01-14T19:47:46.794Z,100895.92
2019-01-14T19:50:20.329Z,100895.66
2019-01-14T19:52:48.854Z,100889.19
2019-01-14T19:55:17.621Z,100889.58
2019-01-14T19:57:46.183Z,100900.36
2019-01-14T20:00:17.802Z,100897.97
2019-01-14T20:02:46.236Z,100899.95
2019-01-14T20:05:14.845Z,100901.63
2019-01-14T20:07:43.327Z,100903.27
2019-01-14T20:10:14.949Z,100911.00
2019-01-14T20:12:43.743Z,100911.92
2019-01-14T20:15:18.127Z,100914.95
2019-01-14T20:17:46.546Z,100924.30
2019-01-14T20:20:15.857Z,100934.92
2019-01-14T20:22:44.559Z,100928.60
2019-01-14T20:25:13.937Z,100935.59
2019-01-14T20:27:44.270Z,100929.48
2019-01-14T20:30:16.125Z,100937.24
2019-01-14T20:32:44.728Z,100947.34
2019-01-14T20:35:13.712Z,100941.80
2019-01-14T20:37:43.975Z,100953.20
2019-01-14T20:40:15.071Z,100947.89
2019-01-14T20:42:47.053Z,100958.30
2019-01-14T20:45:21.168Z,100947.80
2019-01-14T20:47:49.747Z,100930.75
2019-01-14T20:50:19.900Z,100914.80
2019-01-14T20:52:48.511Z,100925.77
2019-01-14T20:55:17.110Z,100918.92
2019-01-14T20:57:45.835Z,100911.36
2019-01-14T21:00:22.397Z,100925.99
2019-01-14T21:02:50.804Z,100931.30
2019-01-14T21:05:19.643Z,100923.91
2019-01-14T21:07:48.226Z,100927.00
2019-01-14T21:10:17.261Z,100923.59
2019-01-14T21:12:45.823Z,100930.44
2019-01-14T21:15:15.814Z,100926.94
2019-01-14T21:17:44.345Z,100926.39
2019-01-14T21:20:23.744Z,100926.70
2019-01-14T21:22:52.697Z,100922.23
2019-01-14T21:25:21.234Z,100913.84
2019-01-14T21:27:49.818Z,100917.02
2019-01-14T21:30:23.597Z,100925.92
2019-01-14T21:32:52.171Z,100929.25
2019-01-14T21:35:20.824Z,100941.28
2019-01-14T21:37:50.630Z,100936.30
2019-01-14T21:40:19.090Z,100945.49
2019-01-14T21:42:47.598Z,100950.59
2019-01-14T21:45:16.235Z,100949.80
2019-01-14T21:47:44.763Z,100949.48
2019-01-14T21:50:20.407Z,100959.47
2019-01-14T21:52:49.010Z,100956.55
2019-01-14T21:55:21.815Z,100959.23
2019-01-14T21:57:50.335Z,100956.70
2019-01-14T22:00:23.077Z,100958.28
2019-01-14T22:02:51.648Z,100951.87
2019-01-14T22:05:24.945Z,100965.41
2019-01-14T22:10:41.465Z,100956.87
2019-01-14T22:13:09.909Z,100954.16
2019-01-14T22:15:38.362Z,100965.33
2019-01-14T22:18:06.852Z,100970.67
2019-01-14T22:20:35.395Z,100977.91
2019-01-14T22:23:05.452Z,100979.73
2019-01-14T22:25:33.934Z,100972.95
2019-01-14T22:28:02.402Z,100974.56
2019-01-14T22:30:31.621Z,100989.46
2019-01-14T22:33:00.111Z,100986.08
2019-01-14T22:35:28.643Z,100987.03
2019-01-14T22:37:57.104Z,100996.53
2019-01-14T22:40:25.612Z,101000.90
2019-01-14T22:42:54.123Z,101001.33
2019-01-14T22:45:22.712Z,101004.08
2019-01-14T22:47:51.239Z,101001.56
2019-01-14T22:50:19.835Z,101001.62
2019-01-14T22:52:48.344Z,100998.81
2019-01-14T22:55:16.780Z,100997.86
2019-01-14T22:57:45.240Z,100996.16
2019-01-14T23:00:24.501Z,100990.33
2019-01-14T23:02:53.032Z,100993.30
2019-01-14T23:05:21.559Z,101004.96
2019-01-14T23:08:02.855Z,101007.23
2019-01-14T23:10:30.792Z,101016.48
2019-01-14T23:12:59.248Z,101019.14
2019-01-14T23:15:27.774Z,101015.76
2019-01-14T23:17:56.275Z,101013.33
2019-01-14T23:20:24.786Z,101019.55
2019-01-14T23:22:53.251Z,101016.92
2019-01-14T23:25:21.749Z,101023.36
2019-01-14T23:27:50.213Z,101025.44
2019-01-14T23:30:20.831Z,101032.92
2019-01-14T23:32:49.288Z,101029.08
2019-01-14T23:35:17.542Z,101024.17
2019-01-14T23:37:46.057Z,101039.36
2019-01-14T23:40:14.682Z,101040.28
2019-01-14T23:42:43.168Z,101039.41
2019-01-14T23:45:11.758Z,101032.17
2019-01-14T23:47:40.257Z,101042.97
2019-01-14T23:50:09.524Z,101036.33
2019-01-14T23:52:37.984Z,101052.12
2019-01-14T23:55:06.948Z,101050.45
2019-01-14T23:57:35.496Z,101040.31
